This is the latest recevied weather packets stored in our database for station/object W5CRT. If no packets are shown the sender has not sent any weather packets the latest 10 day(s).
| Time | Temp. | Humidity | Pressure | Rain* | Wind** | Luminosity | Snow |
|---|---|---|---|---|---|---|---|
| 1777788633 | 15.56° C | 61% | 1018 hPa | 0 mm | - | 0 W/m² | - |
| 1777788333 | 15.56° C | 61% | 1018 hPa | 0 mm | - | 0 W/m² | - |
| 1777788029 | 15.56° C | 61% | 1018 hPa | 0 mm | - | 0 W/m² | - |
| 1777787725 | 15.56° C | 61% | 1017.9 hPa | 0 mm | - | 0 W/m² | - |
| 1777787420 | 16.11° C | 60% | 1018.1 hPa | 0 mm | - | 0 W/m² | - |
| 1777787116 | 15.56° C | 61% | 1017.6 hPa | 0 mm | - | 0 W/m² | - |
| 1777786814 | 15.56° C | 62% | 1017.8 hPa | 0 mm | - | 0 W/m² | - |
| 1777786512 | 15.56° C | 63% | 1017.8 hPa | 0 mm | - | 0 W/m² | - |
| 1777786209 | 15.56° C | 62% | 1017.9 hPa | 0 mm | - | 0 W/m² | - |
| 1777785906 | 15.56° C | 62% | 1018 hPa | 0 mm | - | 0 W/m² | - |
| 1777785602 | 15.56° C | 62% | 1017.6 hPa | 0 mm | - | 0 W/m² | - |
| 1777785297 | 16.11° C | 61% | 1017.8 hPa | 0 mm | - | 0 W/m² | - |
| 1777784995 | 16.11° C | 60% | 1017.7 hPa | 0 mm | - | 0 W/m² | - |
| 1777784691 | 16.67° C | 60% | 1017.8 hPa | 0 mm | - | 0 W/m² | - |
| 1777784389 | 16.67° C | 60% | 1018 hPa | 0 mm | - | 0 W/m² | - |
| 1777784086 | 16.67° C | 60% | 1017.9 hPa | 0 mm | - | 0 W/m² | - |
| 1777783783 | 16.11° C | 60% | 1017.8 hPa | 0 mm | - | 0 W/m² | - |
| 1777783479 | 16.67° C | 59% | 1018 hPa | 0 mm | - | 0 W/m² | - |
| 1777783177 | 16.67° C | 59% | 1017.7 hPa | 0 mm | - | 0 W/m² | - |
| 1777782873 | 16.67° C | 58% | 1017.7 hPa | 0 mm | - | 0 W/m² | - |
| 1777782570 | 16.67° C | 58% | 1017.7 hPa | 0 mm | - | 0 W/m² | - |
| 1777782266 | 17.22° C | 58% | 1017.7 hPa | 0 mm | - | 0 W/m² | - |
| 1777781963 | 17.22° C | 58% | 1017.6 hPa | 0 mm | - | 0 W/m² | - |
| 1777781660 | 17.22° C | 57% | 1017.7 hPa | 0 mm | - | 0 W/m² | - |
| 1777781357 | 17.22° C | 57% | 1017.8 hPa | 0 mm | - | 0 W/m² | - |
* Rain latest hour (hover to see other rain measurements)
** Current wind speed in m/s (hover to see current wind gust speed)